createdAt,value
2023-03-29T00:04:20.814Z,1000.06
2023-03-29T00:09:24.939Z,999.99
2023-03-29T00:14:29.082Z,999.88
2023-03-29T00:19:33.251Z,999.71
2023-03-29T00:24:37.408Z,999.70
2023-03-29T00:29:41.574Z,999.68
2023-03-29T00:34:43.847Z,999.48
2023-03-29T00:39:48.004Z,999.50
2023-03-29T00:44:50.301Z,999.53
2023-03-29T00:49:54.463Z,999.41
2023-03-29T00:54:58.617Z,999.32
2023-03-29T01:00:02.754Z,999.18
2023-03-29T01:05:06.980Z,999.05
2023-03-29T01:10:11.114Z,999.00
2023-03-29T01:15:15.305Z,998.88
2023-03-29T01:20:19.482Z,998.87
2023-03-29T01:25:23.603Z,998.75
2023-03-29T01:30:27.792Z,998.79
2023-03-29T01:35:31.933Z,998.65
2023-03-29T01:40:36.110Z,998.50
2023-03-29T01:45:40.326Z,998.38
2023-03-29T01:50:44.421Z,998.32
2023-03-29T01:55:48.610Z,998.27
2023-03-29T02:00:52.750Z,998.08
2023-03-29T02:05:56.929Z,998.09
2023-03-29T02:11:01.193Z,998.05
2023-03-29T02:16:05.280Z,997.92
2023-03-29T02:21:09.437Z,997.97
2023-03-29T02:26:13.583Z,997.87
2023-03-29T02:31:15.881Z,997.80
2023-03-29T02:36:20.030Z,997.79
2023-03-29T02:41:22.260Z,997.70
2023-03-29T02:46:26.442Z,997.63
2023-03-29T02:51:30.605Z,997.46
2023-03-29T02:56:34.773Z,997.24
2023-03-29T03:01:38.967Z,997.16
2023-03-29T03:11:47.240Z,996.97
2023-03-29T03:16:51.505Z,996.85
2023-03-29T03:26:59.751Z,996.77
2023-03-29T03:32:03.984Z,996.70
2023-03-29T03:37:08.074Z,996.64
2023-03-29T03:42:12.322Z,996.62
2023-03-29T03:47:14.498Z,996.70
2023-03-29T03:52:25.654Z,996.59
2023-03-29T03:57:36.830Z,996.51
2023-03-29T04:02:48.260Z,996.60
2023-03-29T04:07:59.233Z,996.64
2023-03-29T04:13:10.329Z,996.75
2023-03-29T04:18:21.592Z,996.86
2023-03-29T04:23:30.819Z,997.02
2023-03-29T04:28:34.948Z,997.11
2023-03-29T04:33:39.096Z,997.12
2023-03-29T04:38:47.354Z,997.15
2023-03-29T04:43:47.439Z,997.08
2023-03-29T04:48:51.621Z,997.29
2023-03-29T04:53:55.760Z,997.22
2023-03-29T04:58:59.943Z,997.19
2023-03-29T05:04:04.155Z,997.05
2023-03-29T05:09:08.249Z,997.18
2023-03-29T05:14:12.442Z,997.08
2023-03-29T05:19:16.572Z,997.21
2023-03-29T05:24:20.765Z,997.32
2023-03-29T05:29:24.897Z,997.38
2023-03-29T05:34:29.098Z,997.46
2023-03-29T05:39:35.146Z,997.55
2023-03-29T05:44:37.464Z,997.72
2023-03-29T05:49:41.542Z,997.80
2023-03-29T05:54:45.725Z,997.85
2023-03-29T05:59:49.915Z,997.70
2023-03-29T06:04:54.128Z,997.63
2023-03-29T06:09:56.361Z,997.51
2023-03-29T06:15:00.520Z,997.41
2023-03-29T06:20:02.856Z,997.22
2023-03-29T06:25:06.962Z,997.22
2023-03-29T06:30:11.101Z,997.13
2023-03-29T06:35:15.306Z,997.10
2023-03-29T06:40:19.435Z,997.09
2023-03-29T06:45:24.759Z,997.19
2023-03-29T06:50:27.772Z,997.18
2023-03-29T06:55:32.162Z,997.21
2023-03-29T07:00:36.056Z,997.23
2023-03-29T07:05:40.263Z,997.30
2023-03-29T07:10:44.399Z,997.23
2023-03-29T07:15:48.580Z,997.26
2023-03-29T07:20:52.809Z,997.31
2023-03-29T07:25:56.884Z,997.24
2023-03-29T07:31:01.257Z,997.27
2023-03-29T07:36:07.286Z,997.40
2023-03-29T07:41:09.369Z,997.41
2023-03-29T07:46:13.702Z,997.35
2023-03-29T07:51:17.705Z,997.27
2023-03-29T08:01:26.123Z,997.10
2023-03-29T08:06:30.180Z,996.99
2023-03-29T08:11:32.459Z,996.84
2023-03-29T08:16:36.684Z,996.63
2023-03-29T08:21:40.793Z,996.36
2023-03-29T08:26:44.961Z,995.90
2023-03-29T08:31:47.222Z,995.80
2023-03-29T08:36:51.362Z,995.77
2023-03-29T08:41:55.545Z,995.79
2023-03-29T08:46:59.793Z,995.66
2023-03-29T08:52:03.881Z,995.65
2023-03-29T08:57:08.051Z,995.77
2023-03-29T09:02:12.254Z,995.76
2023-03-29T09:07:16.369Z,995.86
2023-03-29T09:12:20.518Z,995.93
2023-03-29T09:17:24.670Z,996.00
2023-03-29T09:22:28.835Z,995.91
2023-03-29T09:27:32.984Z,995.96
2023-03-29T09:32:37.206Z,995.99
2023-03-29T09:37:41.340Z,995.92
2023-03-29T09:42:45.442Z,995.67
2023-03-29T09:47:49.689Z,995.73
2023-03-29T09:52:53.841Z,995.58
2023-03-29T09:57:57.971Z,995.56
2023-03-29T10:08:06.279Z,995.55
2023-03-29T10:13:10.454Z,995.41
2023-03-29T10:18:14.618Z,995.33
2023-03-29T10:23:16.885Z,995.23
2023-03-29T10:28:21.050Z,994.91
2023-03-29T10:33:23.301Z,994.78
2023-03-29T10:38:27.462Z,994.71
2023-03-29T10:43:31.591Z,994.62
2023-03-29T10:48:35.780Z,994.54
2023-03-29T10:53:39.988Z,994.54
2023-03-29T10:58:44.107Z,994.44
2023-03-29T11:03:48.327Z,994.40
2023-03-29T11:08:52.442Z,994.35
2023-03-29T11:13:58.749Z,994.19
2023-03-29T11:19:00.739Z,994.16
2023-03-29T11:24:04.913Z,993.94
2023-03-29T11:29:09.091Z,993.96
2023-03-29T11:34:13.294Z,993.72
2023-03-29T11:39:17.398Z,993.46
2023-03-29T11:44:21.532Z,993.30
2023-03-29T11:49:25.757Z,993.21
2023-03-29T11:54:29.850Z,992.98
2023-03-29T11:59:34.029Z,992.99
2023-03-29T12:04:38.326Z,992.88
2023-03-29T12:09:42.336Z,992.69
2023-03-29T12:14:46.520Z,992.62
2023-03-29T12:19:48.882Z,992.77
2023-03-29T12:24:52.946Z,992.58
2023-03-29T12:29:55.239Z,992.56
2023-03-29T12:34:59.381Z,992.55
2023-03-29T12:40:03.533Z,992.51
2023-03-29T12:45:07.676Z,992.65
2023-03-29T12:50:11.866Z,992.59
2023-03-29T12:55:16.001Z,992.53
2023-03-29T13:00:20.185Z,992.46
2023-03-29T13:05:24.397Z,992.68
2023-03-29T13:10:28.468Z,992.76
2023-03-29T13:15:32.671Z,992.79
2023-03-29T13:20:36.795Z,992.66
2023-03-29T13:25:40.997Z,992.55
2023-03-29T13:30:45.147Z,992.38
2023-03-29T13:35:49.370Z,992.29
2023-03-29T13:40:53.506Z,992.32
2023-03-29T13:45:57.656Z,992.15
2023-03-29T13:51:01.804Z,992.17
2023-03-29T13:56:06.125Z,992.18
2023-03-29T14:01:10.182Z,992.30
2023-03-29T14:06:14.265Z,992.16
2023-03-29T14:11:18.427Z,992.09
2023-03-29T14:16:20.728Z,991.76
2023-03-29T14:21:24.896Z,991.73
2023-03-29T14:26:27.112Z,991.56
2023-03-29T14:31:31.321Z,991.47
2023-03-29T14:36:37.520Z,991.37
2023-03-29T14:41:39.617Z,991.41
2023-03-29T14:46:43.931Z,991.40
2023-03-29T14:51:47.934Z,991.38
2023-03-29T14:56:52.096Z,991.33
2023-03-29T15:01:56.263Z,991.28
2023-03-29T15:07:00.425Z,991.15
2023-03-29T15:12:04.540Z,991.05
2023-03-29T15:17:08.735Z,990.99
2023-03-29T15:22:11.144Z,990.96
2023-03-29T15:27:15.123Z,990.75
2023-03-29T15:32:19.358Z,990.80
2023-03-29T15:37:23.525Z,990.76
2023-03-29T15:42:27.622Z,990.67
2023-03-29T15:47:31.800Z,990.51
2023-03-29T15:52:35.995Z,990.37
2023-03-29T15:57:40.135Z,990.23
2023-03-29T16:02:44.284Z,990.26
2023-03-29T16:07:48.404Z,990.11
2023-03-29T16:12:50.706Z,990.07
2023-03-29T16:17:54.882Z,990.14
2023-03-29T16:22:59.018Z,990.08
2023-03-29T16:28:01.281Z,990.03
2023-03-29T16:33:05.473Z,989.88
2023-03-29T16:38:09.620Z,989.88
2023-03-29T16:43:13.768Z,989.79
2023-03-29T16:48:17.918Z,989.80
2023-03-29T16:53:22.078Z,989.75
2023-03-29T16:58:26.240Z,989.82
2023-03-29T17:03:30.411Z,989.86
2023-03-29T17:08:34.555Z,989.91
2023-03-29T17:13:38.710Z,989.97
2023-03-29T17:18:42.849Z,989.82
2023-03-29T17:23:47.023Z,989.85
2023-03-29T17:28:51.165Z,989.81
2023-03-29T17:33:55.367Z,989.82
2023-03-29T17:39:01.966Z,989.78
2023-03-29T17:44:03.721Z,989.77
2023-03-29T17:49:08.144Z,989.56
2023-03-29T17:54:11.981Z,989.46
2023-03-29T17:59:16.138Z,989.53
2023-03-29T18:04:20.333Z,989.54
2023-03-29T18:09:24.476Z,989.21
2023-03-29T18:14:26.736Z,989.23
2023-03-29T18:19:30.882Z,989.27
2023-03-29T18:24:35.056Z,989.20
2023-03-29T18:29:39.247Z,989.25
2023-03-29T18:34:43.403Z,989.20
2023-03-29T18:39:47.560Z,989.18
2023-03-29T18:44:51.745Z,989.22
2023-03-29T18:49:55.891Z,989.34
2023-03-29T18:55:00.053Z,989.34
2023-03-29T19:00:04.224Z,989.50
2023-03-29T19:05:08.381Z,989.44
2023-03-29T19:10:12.560Z,989.48
2023-03-29T19:15:16.694Z,989.51
2023-03-29T19:20:20.930Z,989.48
2023-03-29T19:25:25.050Z,989.48
2023-03-29T19:30:29.250Z,989.48
2023-03-29T19:35:33.335Z,989.42
2023-03-29T19:40:37.490Z,989.41
2023-03-29T19:45:41.646Z,989.51
2023-03-29T19:50:45.788Z,989.57
2023-03-29T19:55:49.965Z,989.49
2023-03-29T20:00:52.228Z,989.62
2023-03-29T20:05:56.357Z,989.43
2023-03-29T20:10:58.622Z,989.41
2023-03-29T20:16:02.819Z,989.34
2023-03-29T20:21:06.998Z,989.31
2023-03-29T20:26:09.238Z,989.43
2023-03-29T20:31:13.393Z,989.42
2023-03-29T20:36:17.840Z,989.32
2023-03-29T20:41:21.736Z,989.30
2023-03-29T20:46:25.959Z,989.29
2023-03-29T20:51:30.076Z,989.29
2023-03-29T20:56:34.234Z,989.18
2023-03-29T21:01:38.410Z,989.02
2023-03-29T21:06:42.557Z,988.90
2023-03-29T21:11:46.708Z,988.90
2023-03-29T21:16:50.840Z,988.92
2023-03-29T21:21:55.030Z,988.89
2023-03-29T21:26:59.162Z,988.74
2023-03-29T21:32:03.392Z,988.59
2023-03-29T21:37:07.497Z,988.44
2023-03-29T21:42:11.660Z,988.47
2023-03-29T21:47:15.785Z,988.08
2023-03-29T21:52:19.967Z,988.21
2023-03-29T21:57:24.243Z,988.16
2023-03-29T22:02:28.384Z,988.00
2023-03-29T22:07:32.428Z,987.90
2023-03-29T22:12:34.738Z,987.70
2023-03-29T22:17:38.914Z,987.85
2023-03-29T22:22:41.153Z,987.86
2023-03-29T22:27:45.350Z,987.86
2023-03-29T22:32:49.532Z,987.75
2023-03-29T22:37:53.615Z,987.57
2023-03-29T22:42:57.791Z,987.28
2023-03-29T22:48:02.086Z,987.09
2023-03-29T22:53:06.107Z,986.76
2023-03-29T22:58:10.267Z,986.53
2023-03-29T23:03:14.449Z,986.40
2023-03-29T23:08:18.601Z,986.27
2023-03-29T23:13:22.757Z,985.97
2023-03-29T23:18:26.910Z,986.04
2023-03-29T23:23:31.070Z,985.97
2023-03-29T23:28:35.226Z,985.75
2023-03-29T23:33:39.386Z,985.79
2023-03-29T23:38:43.581Z,985.76
2023-03-29T23:43:47.727Z,985.68
2023-03-29T23:48:51.869Z,985.73
2023-03-29T23:53:56.058Z,985.67
2023-03-29T23:59:00.228Z,985.61
